sensor_id;sensor_type;location;lat;lon;timestamp;P1;durP1;ratioP1;P2;durP2;ratioP2
38859;SDS011;24609;48.316;16.174;2023-02-11T00:00:08;19.65;;;9.80;;
38859;SDS011;24609;48.316;16.174;2023-02-11T00:02:34;17.58;;;9.30;;
38859;SDS011;24609;48.316;16.174;2023-02-11T00:05:00;24.05;;;10.70;;
38859;SDS011;24609;48.316;16.174;2023-02-11T00:07:29;19.20;;;9.43;;
38859;SDS011;24609;48.316;16.174;2023-02-11T00:09:56;17.27;;;7.70;;
38859;SDS011;24609;48.316;16.174;2023-02-11T00:12:22;20.55;;;8.80;;
38859;SDS011;24609;48.316;16.174;2023-02-11T00:14:47;13.30;;;8.80;;
38859;SDS011;24609;48.316;16.174;2023-02-11T00:17:13;16.15;;;8.63;;
38859;SDS011;24609;48.316;16.174;2023-02-11T00:19:40;24.48;;;9.48;;
38859;SDS011;24609;48.316;16.174;2023-02-11T00:22:06;20.00;;;10.13;;
38859;SDS011;24609;48.316;16.174;2023-02-11T00:24:32;27.10;;;10.55;;
38859;SDS011;24609;48.316;16.174;2023-02-11T00:26:57;20.08;;;11.20;;
38859;SDS011;24609;48.316;16.174;2023-02-11T00:29:23;19.63;;;8.45;;
38859;SDS011;24609;48.316;16.174;2023-02-11T00:31:49;18.08;;;9.55;;
38859;SDS011;24609;48.316;16.174;2023-02-11T00:34:15;11.55;;;7.13;;
38859;SDS011;24609;48.316;16.174;2023-02-11T00:36:40;15.30;;;7.80;;
38859;SDS011;24609;48.316;16.174;2023-02-11T00:39:06;20.98;;;9.45;;
38859;SDS011;24609;48.316;16.174;2023-02-11T00:41:32;24.73;;;8.75;;
38859;SDS011;24609;48.316;16.174;2023-02-11T00:43:58;15.45;;;7.78;;
38859;SDS011;24609;48.316;16.174;2023-02-11T00:46:25;14.98;;;7.32;;
38859;SDS011;24609;48.316;16.174;2023-02-11T00:48:50;16.25;;;8.30;;
38859;SDS011;24609;48.316;16.174;2023-02-11T00:51:19;13.15;;;6.47;;
38859;SDS011;24609;48.316;16.174;2023-02-11T00:53:44;20.20;;;7.75;;
38859;SDS011;24609;48.316;16.174;2023-02-11T00:56:10;14.18;;;8.57;;
38859;SDS011;24609;48.316;16.174;2023-02-11T00:58:36;22.02;;;7.28;;
38859;SDS011;24609;48.316;16.174;2023-02-11T01:01:02;15.10;;;9.52;;
38859;SDS011;24609;48.316;16.174;2023-02-11T01:03:28;24.55;;;9.20;;
38859;SDS011;24609;48.316;16.174;2023-02-11T01:05:53;15.38;;;7.90;;
38859;SDS011;24609;48.316;16.174;2023-02-11T01:08:19;24.52;;;9.32;;
38859;SDS011;24609;48.316;16.174;2023-02-11T01:10:52;19.33;;;9.02;;
38859;SDS011;24609;48.316;16.174;2023-02-11T01:13:28;20.33;;;9.40;;
38859;SDS011;24609;48.316;16.174;2023-02-11T01:15:55;19.60;;;8.20;;
38859;SDS011;24609;48.316;16.174;2023-02-11T01:18:22;18.75;;;8.85;;
38859;SDS011;24609;48.316;16.174;2023-02-11T01:20:49;18.45;;;9.57;;
38859;SDS011;24609;48.316;16.174;2023-02-11T01:23:15;21.08;;;10.48;;
38859;SDS011;24609;48.316;16.174;2023-02-11T01:25:41;17.20;;;7.47;;
38859;SDS011;24609;48.316;16.174;2023-02-11T01:28:11;19.02;;;9.32;;
38859;SDS011;24609;48.316;16.174;2023-02-11T01:30:43;26.90;;;9.00;;
38859;SDS011;24609;48.316;16.174;2023-02-11T01:33:09;24.75;;;10.10;;
38859;SDS011;24609;48.316;16.174;2023-02-11T01:35:34;19.00;;;10.00;;
38859;SDS011;24609;48.316;16.174;2023-02-11T01:38:01;13.13;;;7.57;;
38859;SDS011;24609;48.316;16.174;2023-02-11T01:40:27;19.65;;;10.00;;
38859;SDS011;24609;48.316;16.174;2023-02-11T01:42:52;16.63;;;10.63;;
38859;SDS011;24609;48.316;16.174;2023-02-11T01:48:15;20.92;;;8.32;;
38859;SDS011;24609;48.316;16.174;2023-02-11T01:50:45;24.83;;;9.10;;
38859;SDS011;24609;48.316;16.174;2023-02-11T01:53:14;21.55;;;8.90;;
38859;SDS011;24609;48.316;16.174;2023-02-11T01:55:59;24.58;;;9.15;;
38859;SDS011;24609;48.316;16.174;2023-02-11T01:58:43;16.60;;;9.35;;
38859;SDS011;24609;48.316;16.174;2023-02-11T02:01:12;20.65;;;9.77;;
38859;SDS011;24609;48.316;16.174;2023-02-11T02:03:40;13.60;;;7.07;;
38859;SDS011;24609;48.316;16.174;2023-02-11T02:06:14;18.20;;;10.03;;
38859;SDS011;24609;48.316;16.174;2023-02-11T02:08:51;12.75;;;6.50;;
38859;SDS011;24609;48.316;16.174;2023-02-11T02:11:25;7.65;;;6.78;;
38859;SDS011;24609;48.316;16.174;2023-02-11T02:13:51;22.38;;;8.75;;
38859;SDS011;24609;48.316;16.174;2023-02-11T02:16:18;25.50;;;8.55;;
38859;SDS011;24609;48.316;16.174;2023-02-11T02:19:00;17.92;;;11.43;;
38859;SDS011;24609;48.316;16.174;2023-02-11T02:30:02;15.18;;;7.90;;
38859;SDS011;24609;48.316;16.174;2023-02-11T02:38:05;16.85;;;9.98;;
38859;SDS011;24609;48.316;16.174;2023-02-11T02:41:03;15.70;;;9.07;;
38859;SDS011;24609;48.316;16.174;2023-02-11T02:43:40;23.08;;;10.93;;
38859;SDS011;24609;48.316;16.174;2023-02-11T02:48:39;14.40;;;9.75;;
38859;SDS011;24609;48.316;16.174;2023-02-11T03:02:31;17.45;;;9.63;;
38859;SDS011;24609;48.316;16.174;2023-02-11T03:05:17;18.88;;;9.05;;
38859;SDS011;24609;48.316;16.174;2023-02-11T03:07:47;23.48;;;11.43;;
38859;SDS011;24609;48.316;16.174;2023-02-11T03:10:18;26.35;;;12.40;;
38859;SDS011;24609;48.316;16.174;2023-02-11T03:12:50;28.83;;;10.93;;
38859;SDS011;24609;48.316;16.174;2023-02-11T03:15:18;18.13;;;9.18;;
38859;SDS011;24609;48.316;16.174;2023-02-11T03:17:47;27.37;;;11.33;;
38859;SDS011;24609;48.316;16.174;2023-02-11T03:20:16;17.65;;;10.73;;
38859;SDS011;24609;48.316;16.174;2023-02-11T03:25:52;20.30;;;12.38;;
38859;SDS011;24609;48.316;16.174;2023-02-11T03:28:34;17.70;;;10.90;;
38859;SDS011;24609;48.316;16.174;2023-02-11T03:31:20;34.55;;;12.73;;
38859;SDS011;24609;48.316;16.174;2023-02-11T03:33:52;21.77;;;11.40;;
38859;SDS011;24609;48.316;16.174;2023-02-11T03:36:26;28.00;;;13.00;;
38859;SDS011;24609;48.316;16.174;2023-02-11T03:39:09;17.55;;;9.50;;
38859;SDS011;24609;48.316;16.174;2023-02-11T03:41:38;18.92;;;11.02;;
38859;SDS011;24609;48.316;16.174;2023-02-11T03:44:06;21.27;;;9.90;;
38859;SDS011;24609;48.316;16.174;2023-02-11T03:46:35;19.35;;;11.40;;
38859;SDS011;24609;48.316;16.174;2023-02-11T03:49:08;24.08;;;12.18;;
38859;SDS011;24609;48.316;16.174;2023-02-11T03:51:37;21.50;;;13.23;;
38859;SDS011;24609;48.316;16.174;2023-02-11T03:54:05;19.70;;;11.18;;
38859;SDS011;24609;48.316;16.174;2023-02-11T03:56:40;26.98;;;12.45;;
38859;SDS011;24609;48.316;16.174;2023-02-11T03:59:17;19.50;;;11.07;;
38859;SDS011;24609;48.316;16.174;2023-02-11T04:01:43;28.50;;;12.13;;
38859;SDS011;24609;48.316;16.174;2023-02-11T04:04:09;19.23;;;11.45;;
38859;SDS011;24609;48.316;16.174;2023-02-11T04:06:35;29.23;;;11.68;;
38859;SDS011;24609;48.316;16.174;2023-02-11T04:09:00;25.42;;;11.48;;
38859;SDS011;24609;48.316;16.174;2023-02-11T04:11:26;33.47;;;12.13;;
38859;SDS011;24609;48.316;16.174;2023-02-11T04:13:52;23.63;;;11.82;;
38859;SDS011;24609;48.316;16.174;2023-02-11T04:16:18;34.92;;;13.50;;
38859;SDS011;24609;48.316;16.174;2023-02-11T04:18:44;24.52;;;11.38;;
38859;SDS011;24609;48.316;16.174;2023-02-11T04:21:09;25.58;;;10.73;;
38859;SDS011;24609;48.316;16.174;2023-02-11T04:23:35;23.70;;;12.00;;
38859;SDS011;24609;48.316;16.174;2023-02-11T04:26:01;21.10;;;11.13;;
38859;SDS011;24609;48.316;16.174;2023-02-11T04:28:26;23.98;;;12.95;;
38859;SDS011;24609;48.316;16.174;2023-02-11T04:30:53;20.67;;;10.38;;
38859;SDS011;24609;48.316;16.174;2023-02-11T04:33:19;24.02;;;12.70;;
38859;SDS011;24609;48.316;16.174;2023-02-11T04:35:45;27.58;;;13.18;;
38859;SDS011;24609;48.316;16.174;2023-02-11T04:38:11;25.70;;;10.73;;
38859;SDS011;24609;48.316;16.174;2023-02-11T04:40:37;22.38;;;10.43;;
38859;SDS011;24609;48.316;16.174;2023-02-11T04:43:03;19.08;;;11.05;;
38859;SDS011;24609;48.316;16.174;2023-02-11T04:45:29;17.15;;;9.15;;
38859;SDS011;24609;48.316;16.174;2023-02-11T04:47:55;20.13;;;9.57;;
38859;SDS011;24609;48.316;16.174;2023-02-11T04:50:20;22.35;;;11.77;;
38859;SDS011;24609;48.316;16.174;2023-02-11T04:52:46;21.38;;;12.38;;
38859;SDS011;24609;48.316;16.174;2023-02-11T04:55:12;18.83;;;10.25;;
38859;SDS011;24609;48.316;16.174;2023-02-11T04:57:37;20.02;;;9.63;;
38859;SDS011;24609;48.316;16.174;2023-02-11T05:00:03;22.55;;;10.70;;
38859;SDS011;24609;48.316;16.174;2023-02-11T05:02:29;23.60;;;11.27;;
38859;SDS011;24609;48.316;16.174;2023-02-11T05:04:55;26.05;;;11.88;;
38859;SDS011;24609;48.316;16.174;2023-02-11T05:07:21;27.52;;;12.18;;
38859;SDS011;24609;48.316;16.174;2023-02-11T05:09:46;24.98;;;11.82;;
38859;SDS011;24609;48.316;16.174;2023-02-11T05:12:12;22.13;;;11.98;;
38859;SDS011;24609;48.316;16.174;2023-02-11T05:14:38;31.65;;;13.73;;
38859;SDS011;24609;48.316;16.174;2023-02-11T05:17:03;16.02;;;10.82;;
38859;SDS011;24609;48.316;16.174;2023-02-11T05:19:29;23.95;;;12.18;;
38859;SDS011;24609;48.316;16.174;2023-02-11T05:21:56;21.63;;;11.50;;
38859;SDS011;24609;48.316;16.174;2023-02-11T05:24:22;30.17;;;11.98;;
38859;SDS011;24609;48.316;16.174;2023-02-11T05:26:48;26.75;;;10.82;;
38859;SDS011;24609;48.316;16.174;2023-02-11T05:29:13;17.55;;;9.57;;
38859;SDS011;24609;48.316;16.174;2023-02-11T05:31:39;17.88;;;9.70;;
38859;SDS011;24609;48.316;16.174;2023-02-11T05:34:04;19.33;;;10.63;;
38859;SDS011;24609;48.316;16.174;2023-02-11T05:36:30;22.23;;;11.02;;
38859;SDS011;24609;48.316;16.174;2023-02-11T05:38:56;18.67;;;10.88;;
38859;SDS011;24609;48.316;16.174;2023-02-11T05:41:22;27.40;;;13.20;;
38859;SDS011;24609;48.316;16.174;2023-02-11T05:43:48;22.80;;;10.65;;
38859;SDS011;24609;48.316;16.174;2023-02-11T05:46:15;22.02;;;10.73;;
38859;SDS011;24609;48.316;16.174;2023-02-11T05:48:41;18.92;;;10.70;;
38859;SDS011;24609;48.316;16.174;2023-02-11T05:51:07;24.85;;;12.00;;
38859;SDS011;24609;48.316;16.174;2023-02-11T05:53:34;27.80;;;13.80;;
38859;SDS011;24609;48.316;16.174;2023-02-11T05:55:59;28.48;;;13.10;;
38859;SDS011;24609;48.316;16.174;2023-02-11T05:58:25;25.08;;;11.93;;
38859;SDS011;24609;48.316;16.174;2023-02-11T06:00:51;30.17;;;13.73;;
38859;SDS011;24609;48.316;16.174;2023-02-11T06:03:17;30.75;;;10.65;;
38859;SDS011;24609;48.316;16.174;2023-02-11T06:05:43;26.83;;;12.88;;
38859;SDS011;24609;48.316;16.174;2023-02-11T06:08:09;19.92;;;12.25;;
38859;SDS011;24609;48.316;16.174;2023-02-11T06:10:35;23.15;;;12.43;;
38859;SDS011;24609;48.316;16.174;2023-02-11T06:13:01;27.50;;;13.50;;
38859;SDS011;24609;48.316;16.174;2023-02-11T06:15:27;21.35;;;12.93;;
38859;SDS011;24609;48.316;16.174;2023-02-11T06:17:52;20.85;;;11.98;;
38859;SDS011;24609;48.316;16.174;2023-02-11T06:20:18;19.30;;;12.43;;
38859;SDS011;24609;48.316;16.174;2023-02-11T06:22:44;28.88;;;12.30;;
38859;SDS011;24609;48.316;16.174;2023-02-11T06:25:10;20.58;;;11.77;;
38859;SDS011;24609;48.316;16.174;2023-02-11T06:27:36;21.20;;;11.85;;
38859;SDS011;24609;48.316;16.174;2023-02-11T06:30:03;26.77;;;13.18;;
38859;SDS011;24609;48.316;16.174;2023-02-11T06:32:30;23.85;;;12.77;;
38859;SDS011;24609;48.316;16.174;2023-02-11T06:34:56;25.25;;;12.45;;
38859;SDS011;24609;48.316;16.174;2023-02-11T06:37:21;24.13;;;12.32;;
38859;SDS011;24609;48.316;16.174;2023-02-11T06:39:47;20.65;;;12.13;;
38859;SDS011;24609;48.316;16.174;2023-02-11T06:42:13;22.58;;;10.68;;
38859;SDS011;24609;48.316;16.174;2023-02-11T06:44:43;33.50;;;12.90;;
38859;SDS011;24609;48.316;16.174;2023-02-11T06:47:09;24.48;;;11.70;;
38859;SDS011;24609;48.316;16.174;2023-02-11T06:49:35;21.95;;;11.20;;
38859;SDS011;24609;48.316;16.174;2023-02-11T06:52:00;23.17;;;11.25;;
38859;SDS011;24609;48.316;16.174;2023-02-11T06:54:27;26.83;;;12.65;;
38859;SDS011;24609;48.316;16.174;2023-02-11T06:56:53;24.90;;;12.50;;
38859;SDS011;24609;48.316;16.174;2023-02-11T06:59:18;19.60;;;11.10;;
38859;SDS011;24609;48.316;16.174;2023-02-11T07:01:44;32.22;;;12.80;;
38859;SDS011;24609;48.316;16.174;2023-02-11T07:04:11;30.92;;;12.88;;
38859;SDS011;24609;48.316;16.174;2023-02-11T07:06:38;23.40;;;11.93;;
38859;SDS011;24609;48.316;16.174;2023-02-11T07:09:05;23.42;;;10.85;;
38859;SDS011;24609;48.316;16.174;2023-02-11T07:11:31;27.15;;;11.07;;
38859;SDS011;24609;48.316;16.174;2023-02-11T07:14:04;22.50;;;11.13;;
38859;SDS011;24609;48.316;16.174;2023-02-11T07:16:32;30.80;;;11.85;;
38859;SDS011;24609;48.316;16.174;2023-02-11T07:18:59;22.52;;;11.73;;
38859;SDS011;24609;48.316;16.174;2023-02-11T07:21:25;26.60;;;12.70;;
38859;SDS011;24609;48.316;16.174;2023-02-11T07:23:51;24.90;;;11.35;;
38859;SDS011;24609;48.316;16.174;2023-02-11T07:26:18;27.02;;;13.55;;
38859;SDS011;24609;48.316;16.174;2023-02-11T07:28:47;18.08;;;10.18;;
38859;SDS011;24609;48.316;16.174;2023-02-11T07:31:14;24.67;;;12.82;;
38859;SDS011;24609;48.316;16.174;2023-02-11T07:33:42;24.08;;;10.20;;
38859;SDS011;24609;48.316;16.174;2023-02-11T07:36:10;21.15;;;11.43;;
38859;SDS011;24609;48.316;16.174;2023-02-11T07:38:36;21.58;;;10.18;;
38859;SDS011;24609;48.316;16.174;2023-02-11T07:41:03;24.58;;;11.90;;
38859;SDS011;24609;48.316;16.174;2023-02-11T07:43:31;22.52;;;11.48;;
38859;SDS011;24609;48.316;16.174;2023-02-11T07:45:57;32.80;;;15.13;;
38859;SDS011;24609;48.316;16.174;2023-02-11T07:48:23;24.65;;;11.10;;
38859;SDS011;24609;48.316;16.174;2023-02-11T07:50:49;22.02;;;11.82;;
38859;SDS011;24609;48.316;16.174;2023-02-11T07:53:15;19.38;;;10.57;;
38859;SDS011;24609;48.316;16.174;2023-02-11T07:55:41;16.45;;;10.07;;
38859;SDS011;24609;48.316;16.174;2023-02-11T07:58:07;23.15;;;10.45;;
38859;SDS011;24609;48.316;16.174;2023-02-11T08:00:33;17.25;;;10.73;;
38859;SDS011;24609;48.316;16.174;2023-02-11T08:02:59;21.42;;;9.38;;
38859;SDS011;24609;48.316;16.174;2023-02-11T08:05:25;21.55;;;10.32;;
38859;SDS011;24609;48.316;16.174;2023-02-11T08:07:51;26.05;;;10.38;;
38859;SDS011;24609;48.316;16.174;2023-02-11T08:10:17;23.92;;;11.27;;
38859;SDS011;24609;48.316;16.174;2023-02-11T08:12:43;21.17;;;9.70;;
38859;SDS011;24609;48.316;16.174;2023-02-11T08:15:09;18.27;;;9.43;;
38859;SDS011;24609;48.316;16.174;2023-02-11T08:17:35;20.30;;;9.35;;
38859;SDS011;24609;48.316;16.174;2023-02-11T08:20:01;17.08;;;9.50;;
38859;SDS011;24609;48.316;16.174;2023-02-11T08:22:29;15.93;;;9.55;;
38859;SDS011;24609;48.316;16.174;2023-02-11T08:24:56;22.17;;;9.80;;
38859;SDS011;24609;48.316;16.174;2023-02-11T08:27:22;25.23;;;10.88;;
38859;SDS011;24609;48.316;16.174;2023-02-11T08:29:48;24.17;;;11.55;;
38859;SDS011;24609;48.316;16.174;2023-02-11T08:32:14;21.08;;;11.57;;
38859;SDS011;24609;48.316;16.174;2023-02-11T08:34:40;19.80;;;8.85;;
38859;SDS011;24609;48.316;16.174;2023-02-11T08:37:05;20.42;;;9.45;;
38859;SDS011;24609;48.316;16.174;2023-02-11T08:39:31;19.23;;;9.10;;
38859;SDS011;24609;48.316;16.174;2023-02-11T08:41:56;27.50;;;11.00;;
38859;SDS011;24609;48.316;16.174;2023-02-11T08:44:22;28.92;;;9.80;;
38859;SDS011;24609;48.316;16.174;2023-02-11T08:46:49;23.90;;;10.50;;
38859;SDS011;24609;48.316;16.174;2023-02-11T08:49:15;26.27;;;10.65;;
38859;SDS011;24609;48.316;16.174;2023-02-11T08:51:40;23.40;;;10.20;;
38859;SDS011;24609;48.316;16.174;2023-02-11T08:54:06;18.90;;;9.45;;
38859;SDS011;24609;48.316;16.174;2023-02-11T08:56:34;16.20;;;9.02;;
38859;SDS011;24609;48.316;16.174;2023-02-11T08:59:00;15.07;;;9.18;;
38859;SDS011;24609;48.316;16.174;2023-02-11T09:01:27;19.45;;;9.30;;
38859;SDS011;24609;48.316;16.174;2023-02-11T09:03:54;19.45;;;9.45;;
38859;SDS011;24609;48.316;16.174;2023-02-11T09:06:20;18.27;;;9.35;;
38859;SDS011;24609;48.316;16.174;2023-02-11T09:08:48;25.15;;;10.20;;
38859;SDS011;24609;48.316;16.174;2023-02-11T09:11:16;17.33;;;9.57;;
38859;SDS011;24609;48.316;16.174;2023-02-11T09:13:44;16.95;;;8.10;;
38859;SDS011;24609;48.316;16.174;2023-02-11T09:16:17;24.75;;;10.60;;
38859;SDS011;24609;48.316;16.174;2023-02-11T09:18:45;16.25;;;8.70;;
38859;SDS011;24609;48.316;16.174;2023-02-11T09:21:11;21.35;;;8.73;;
38859;SDS011;24609;48.316;16.174;2023-02-11T09:23:38;25.83;;;9.93;;
38859;SDS011;24609;48.316;16.174;2023-02-11T09:26:07;15.52;;;7.88;;
38859;SDS011;24609;48.316;16.174;2023-02-11T09:28:34;19.50;;;9.40;;
38859;SDS011;24609;48.316;16.174;2023-02-11T09:31:03;16.13;;;8.57;;
38859;SDS011;24609;48.316;16.174;2023-02-11T09:33:30;19.55;;;8.77;;
38859;SDS011;24609;48.316;16.174;2023-02-11T09:35:59;15.43;;;9.25;;
38859;SDS011;24609;48.316;16.174;2023-02-11T09:38:29;18.67;;;8.27;;
38859;SDS011;24609;48.316;16.174;2023-02-11T09:40:55;18.52;;;8.82;;
38859;SDS011;24609;48.316;16.174;2023-02-11T09:43:22;15.45;;;8.98;;
38859;SDS011;24609;48.316;16.174;2023-02-11T09:46:01;19.13;;;8.65;;
38859;SDS011;24609;48.316;16.174;2023-02-11T09:48:29;21.95;;;10.25;;
38859;SDS011;24609;48.316;16.174;2023-02-11T09:51:02;22.30;;;10.20;;
38859;SDS011;24609;48.316;16.174;2023-02-11T09:53:30;24.40;;;9.55;;
38859;SDS011;24609;48.316;16.174;2023-02-11T09:56:01;19.52;;;10.27;;
38859;SDS011;24609;48.316;16.174;2023-02-11T09:58:36;24.52;;;10.82;;
38859;SDS011;24609;48.316;16.174;2023-02-11T10:22:40;18.38;;;8.10;;
38859;SDS011;24609;48.316;16.174;2023-02-11T10:25:20;17.27;;;9.18;;
38859;SDS011;24609;48.316;16.174;2023-02-11T10:27:49;18.90;;;8.95;;
38859;SDS011;24609;48.316;16.174;2023-02-11T10:33:04;16.83;;;8.23;;
38859;SDS011;24609;48.316;16.174;2023-02-11T10:35:40;24.27;;;10.05;;
38859;SDS011;24609;48.316;16.174;2023-02-11T10:38:07;20.40;;;9.55;;
38859;SDS011;24609;48.316;16.174;2023-02-11T10:40:34;17.77;;;9.50;;
38859;SDS011;24609;48.316;16.174;2023-02-11T10:43:02;22.42;;;9.48;;
38859;SDS011;24609;48.316;16.174;2023-02-11T10:53:34;20.65;;;10.52;;
38859;SDS011;24609;48.316;16.174;2023-02-11T10:56:00;22.85;;;11.52;;
38859;SDS011;24609;48.316;16.174;2023-02-11T11:01:00;24.48;;;11.07;;
38859;SDS011;24609;48.316;16.174;2023-02-11T11:03:28;22.67;;;11.60;;
38859;SDS011;24609;48.316;16.174;2023-02-11T11:05:59;26.58;;;12.20;;
38859;SDS011;24609;48.316;16.174;2023-02-11T11:11:13;24.48;;;12.93;;
38859;SDS011;24609;48.316;16.174;2023-02-11T11:16:25;23.27;;;11.48;;
38859;SDS011;24609;48.316;16.174;2023-02-11T11:18:52;25.25;;;11.35;;
38859;SDS011;24609;48.316;16.174;2023-02-11T11:21:46;17.77;;;11.02;;
38859;SDS011;24609;48.316;16.174;2023-02-11T11:27:04;21.63;;;10.50;;
38859;SDS011;24609;48.316;16.174;2023-02-11T11:29:51;15.95;;;8.45;;
38859;SDS011;24609;48.316;16.174;2023-02-11T11:32:20;19.00;;;9.27;;
38859;SDS011;24609;48.316;16.174;2023-02-11T11:34:48;21.08;;;8.70;;
38859;SDS011;24609;48.316;16.174;2023-02-11T11:37:21;17.58;;;9.27;;
38859;SDS011;24609;48.316;16.174;2023-02-11T11:39:55;16.88;;;8.50;;
38859;SDS011;24609;48.316;16.174;2023-02-11T11:42:25;15.73;;;8.35;;
38859;SDS011;24609;48.316;16.174;2023-02-11T11:45:17;16.98;;;8.57;;
38859;SDS011;24609;48.316;16.174;2023-02-11T11:47:46;12.37;;;8.43;;
38859;SDS011;24609;48.316;16.174;2023-02-11T11:53:00;20.23;;;8.30;;
38859;SDS011;24609;48.316;16.174;2023-02-11T11:55:47;17.88;;;8.05;;
38859;SDS011;24609;48.316;16.174;2023-02-11T11:58:31;20.73;;;10.05;;
38859;SDS011;24609;48.316;16.174;2023-02-11T12:06:11;13.30;;;8.00;;
38859;SDS011;24609;48.316;16.174;2023-02-11T12:22:31;20.00;;;9.60;;
38859;SDS011;24609;48.316;16.174;2023-02-11T12:25:26;22.30;;;8.65;;
38859;SDS011;24609;48.316;16.174;2023-02-11T12:28:18;18.33;;;8.82;;
38859;SDS011;24609;48.316;16.174;2023-02-11T12:45:23;19.10;;;9.75;;
38859;SDS011;24609;48.316;16.174;2023-02-11T13:02:08;19.95;;;9.57;;
38859;SDS011;24609;48.316;16.174;2023-02-11T13:07:57;22.42;;;11.30;;
38859;SDS011;24609;48.316;16.174;2023-02-11T13:10:33;24.20;;;10.77;;
38859;SDS011;24609;48.316;16.174;2023-02-11T13:13:18;26.17;;;9.23;;
38859;SDS011;24609;48.316;16.174;2023-02-11T13:15:52;24.08;;;9.50;;
38859;SDS011;24609;48.316;16.174;2023-02-11T13:37:23;20.02;;;8.15;;
38859;SDS011;24609;48.316;16.174;2023-02-11T13:39:55;19.70;;;9.57;;
38859;SDS011;24609;48.316;16.174;2023-02-11T13:42:21;13.15;;;7.43;;
38859;SDS011;24609;48.316;16.174;2023-02-11T13:44:47;16.23;;;8.52;;
38859;SDS011;24609;48.316;16.174;2023-02-11T13:47:32;17.90;;;8.82;;
38859;SDS011;24609;48.316;16.174;2023-02-11T13:50:01;16.80;;;8.93;;
38859;SDS011;24609;48.316;16.174;2023-02-11T13:52:31;16.92;;;8.80;;
38859;SDS011;24609;48.316;16.174;2023-02-11T13:55:22;18.38;;;8.20;;
38859;SDS011;24609;48.316;16.174;2023-02-11T14:17:26;13.68;;;7.35;;
38859;SDS011;24609;48.316;16.174;2023-02-11T14:19:54;13.52;;;6.65;;
38859;SDS011;24609;48.316;16.174;2023-02-11T14:22:27;16.13;;;6.75;;
38859;SDS011;24609;48.316;16.174;2023-02-11T14:25:23;19.30;;;6.90;;
38859;SDS011;24609;48.316;16.174;2023-02-11T14:28:01;13.05;;;6.75;;
38859;SDS011;24609;48.316;16.174;2023-02-11T14:41:37;16.50;;;6.18;;
38859;SDS011;24609;48.316;16.174;2023-02-11T14:44:10;16.27;;;6.88;;
38859;SDS011;24609;48.316;16.174;2023-02-11T14:46:44;17.98;;;7.53;;
38859;SDS011;24609;48.316;16.174;2023-02-11T14:49:19;11.85;;;6.38;;
38859;SDS011;24609;48.316;16.174;2023-02-11T14:51:49;14.75;;;6.57;;
38859;SDS011;24609;48.316;16.174;2023-02-11T14:54:17;12.18;;;5.93;;
38859;SDS011;24609;48.316;16.174;2023-02-11T14:56:58;16.02;;;6.25;;
38859;SDS011;24609;48.316;16.174;2023-02-11T14:59:55;11.63;;;6.45;;
38859;SDS011;24609;48.316;16.174;2023-02-11T15:02:33;9.55;;;5.45;;
38859;SDS011;24609;48.316;16.174;2023-02-11T15:08:02;14.07;;;6.15;;
38859;SDS011;24609;48.316;16.174;2023-02-11T15:10:35;14.60;;;7.05;;
38859;SDS011;24609;48.316;16.174;2023-02-11T15:13:06;12.95;;;5.43;;
38859;SDS011;24609;48.316;16.174;2023-02-11T15:15:33;12.95;;;7.05;;
38859;SDS011;24609;48.316;16.174;2023-02-11T15:18:01;19.98;;;7.15;;
38859;SDS011;24609;48.316;16.174;2023-02-11T15:20:29;17.65;;;7.30;;
38859;SDS011;24609;48.316;16.174;2023-02-11T15:22:57;16.33;;;7.10;;
38859;SDS011;24609;48.316;16.174;2023-02-11T15:25:25;15.82;;;8.13;;
38859;SDS011;24609;48.316;16.174;2023-02-11T15:27:56;20.27;;;6.75;;
38859;SDS011;24609;48.316;16.174;2023-02-11T15:35:14;13.57;;;6.28;;
38859;SDS011;24609;48.316;16.174;2023-02-11T15:37:41;15.55;;;7.32;;
38859;SDS011;24609;48.316;16.174;2023-02-11T15:40:09;15.63;;;6.75;;
38859;SDS011;24609;48.316;16.174;2023-02-11T15:42:40;12.38;;;6.68;;
38859;SDS011;24609;48.316;16.174;2023-02-11T15:47:51;15.55;;;7.13;;
38859;SDS011;24609;48.316;16.174;2023-02-11T15:50:19;18.02;;;7.60;;
38859;SDS011;24609;48.316;16.174;2023-02-11T15:52:50;16.65;;;7.05;;
38859;SDS011;24609;48.316;16.174;2023-02-11T15:55:17;15.18;;;7.40;;
38859;SDS011;24609;48.316;16.174;2023-02-11T15:57:44;15.88;;;7.93;;
38859;SDS011;24609;48.316;16.174;2023-02-11T16:00:18;10.88;;;5.88;;
38859;SDS011;24609;48.316;16.174;2023-02-11T16:02:46;11.73;;;7.15;;
38859;SDS011;24609;48.316;16.174;2023-02-11T16:05:31;13.52;;;6.20;;
38859;SDS011;24609;48.316;16.174;2023-02-11T16:08:00;12.23;;;6.38;;
38859;SDS011;24609;48.316;16.174;2023-02-11T16:10:37;14.73;;;6.65;;
38859;SDS011;24609;48.316;16.174;2023-02-11T16:18:26;14.82;;;6.80;;
38859;SDS011;24609;48.316;16.174;2023-02-11T16:20:55;13.70;;;6.32;;
38859;SDS011;24609;48.316;16.174;2023-02-11T16:23:23;13.82;;;7.45;;
38859;SDS011;24609;48.316;16.174;2023-02-11T16:26:02;14.50;;;6.97;;
38859;SDS011;24609;48.316;16.174;2023-02-11T16:28:35;13.95;;;7.15;;
38859;SDS011;24609;48.316;16.174;2023-02-11T16:31:02;10.80;;;6.30;;
38859;SDS011;24609;48.316;16.174;2023-02-11T16:33:28;14.50;;;7.07;;
38859;SDS011;24609;48.316;16.174;2023-02-11T16:35:54;15.52;;;7.15;;
38859;SDS011;24609;48.316;16.174;2023-02-11T16:38:21;15.57;;;7.45;;
38859;SDS011;24609;48.316;16.174;2023-02-11T16:40:47;22.02;;;9.65;;
38859;SDS011;24609;48.316;16.174;2023-02-11T16:43:16;16.02;;;8.15;;
38859;SDS011;24609;48.316;16.174;2023-02-11T16:45:43;14.32;;;7.22;;
38859;SDS011;24609;48.316;16.174;2023-02-11T16:48:08;17.05;;;7.47;;
38859;SDS011;24609;48.316;16.174;2023-02-11T16:50:42;12.23;;;5.90;;
38859;SDS011;24609;48.316;16.174;2023-02-11T16:53:10;11.85;;;6.57;;
38859;SDS011;24609;48.316;16.174;2023-02-11T16:55:36;13.13;;;7.07;;
38859;SDS011;24609;48.316;16.174;2023-02-11T16:58:02;19.00;;;7.88;;
38859;SDS011;24609;48.316;16.174;2023-02-11T17:00:27;14.40;;;8.05;;
38859;SDS011;24609;48.316;16.174;2023-02-11T17:02:53;19.20;;;9.10;;
38859;SDS011;24609;48.316;16.174;2023-02-11T17:05:20;15.75;;;6.95;;
38859;SDS011;24609;48.316;16.174;2023-02-11T17:07:47;18.33;;;8.07;;
38859;SDS011;24609;48.316;16.174;2023-02-11T17:10:20;17.02;;;7.38;;
38859;SDS011;24609;48.316;16.174;2023-02-11T17:12:47;15.63;;;8.20;;
38859;SDS011;24609;48.316;16.174;2023-02-11T17:15:15;12.93;;;8.35;;
38859;SDS011;24609;48.316;16.174;2023-02-11T17:17:40;15.60;;;7.10;;
38859;SDS011;24609;48.316;16.174;2023-02-11T17:20:06;15.38;;;7.88;;
38859;SDS011;24609;48.316;16.174;2023-02-11T17:22:35;14.18;;;7.30;;
38859;SDS011;24609;48.316;16.174;2023-02-11T17:25:00;14.40;;;7.70;;
38859;SDS011;24609;48.316;16.174;2023-02-11T17:27:26;16.23;;;7.88;;
38859;SDS011;24609;48.316;16.174;2023-02-11T17:29:52;23.38;;;9.80;;
38859;SDS011;24609;48.316;16.174;2023-02-11T17:32:17;17.25;;;9.07;;
38859;SDS011;24609;48.316;16.174;2023-02-11T17:34:43;18.55;;;7.65;;
38859;SDS011;24609;48.316;16.174;2023-02-11T17:37:09;17.63;;;8.95;;
38859;SDS011;24609;48.316;16.174;2023-02-11T17:39:37;15.70;;;7.80;;
38859;SDS011;24609;48.316;16.174;2023-02-11T17:42:04;18.05;;;8.68;;